sensor_id;sensor_type;location;lat;lon;timestamp;pressure;altitude;pressure_sealevel;temperature;humidity
73016;BME280;61893;50.074;14.440;2023-05-21T00:00:49;98611.22;;;13.97;88.97
73016;BME280;61893;50.074;14.440;2023-05-21T00:03:38;98613.34;;;14.02;89.26
73016;BME280;61893;50.074;14.440;2023-05-21T00:06:05;98603.88;;;13.91;90.10
73016;BME280;61893;50.074;14.440;2023-05-21T00:08:32;98603.69;;;13.92;89.93
73016;BME280;61893;50.074;14.440;2023-05-21T00:11:00;98602.53;;;13.87;89.98
73016;BME280;61893;50.074;14.440;2023-05-21T00:13:26;98592.31;;;13.90;90.20
73016;BME280;61893;50.074;14.440;2023-05-21T00:15:52;98586.34;;;13.80;90.59
73016;BME280;61893;50.074;14.440;2023-05-21T00:18:18;98584.50;;;13.72;90.76
73016;BME280;61893;50.074;14.440;2023-05-21T00:20:49;98584.66;;;13.79;90.53
73016;BME280;61893;50.074;14.440;2023-05-21T00:24:10;98581.34;;;13.77;90.91
73016;BME280;61893;50.074;14.440;2023-05-21T00:26:36;98584.16;;;13.75;91.07
73016;BME280;61893;50.074;14.440;2023-05-21T00:29:02;98581.84;;;13.64;91.69
73016;BME280;61893;50.074;14.440;2023-05-21T00:31:29;98582.19;;;13.69;91.90
73016;BME280;61893;50.074;14.440;2023-05-21T00:33:54;98581.47;;;13.84;91.02
73016;BME280;61893;50.074;14.440;2023-05-21T00:36:20;98579.97;;;13.81;90.86
73016;BME280;61893;50.074;14.440;2023-05-21T00:38:51;98574.81;;;13.80;91.24
73016;BME280;61893;50.074;14.440;2023-05-21T00:41:17;98577.34;;;13.65;92.08
73016;BME280;61893;50.074;14.440;2023-05-21T00:43:43;98576.00;;;13.69;91.94
73016;BME280;61893;50.074;14.440;2023-05-21T00:46:13;98575.69;;;13.64;92.20
73016;BME280;61893;50.074;14.440;2023-05-21T00:48:42;98581.50;;;13.75;91.58
73016;BME280;61893;50.074;14.440;2023-05-21T00:51:08;98578.00;;;13.75;91.56
73016;BME280;61893;50.074;14.440;2023-05-21T00:53:34;98577.19;;;13.66;91.90
73016;BME280;61893;50.074;14.440;2023-05-21T00:56:01;98569.66;;;13.62;92.08
73016;BME280;61893;50.074;14.440;2023-05-21T00:58:28;98569.03;;;13.51;92.82
73016;BME280;61893;50.074;14.440;2023-05-21T01:00:54;98574.84;;;13.63;92.55
73016;BME280;61893;50.074;14.440;2023-05-21T01:03:23;98570.34;;;13.64;92.31
73016;BME280;61893;50.074;14.440;2023-05-21T01:05:50;98566.72;;;13.48;92.88
73016;BME280;61893;50.074;14.440;2023-05-21T01:08:20;98568.38;;;13.41;93.66
73016;BME280;61893;50.074;14.440;2023-05-21T01:10:47;98556.84;;;13.33;94.24
73016;BME280;61893;50.074;14.440;2023-05-21T01:13:14;98564.03;;;13.40;93.54
73016;BME280;61893;50.074;14.440;2023-05-21T01:15:43;98565.34;;;13.44;93.58
73016;BME280;61893;50.074;14.440;2023-05-21T01:18:08;98544.16;;;13.51;92.80
73016;BME280;61893;50.074;14.440;2023-05-21T01:20:34;98555.00;;;13.41;93.36
73016;BME280;61893;50.074;14.440;2023-05-21T01:23:01;98550.84;;;13.39;93.23
73016;BME280;61893;50.074;14.440;2023-05-21T01:25:28;98550.31;;;13.51;92.51
73016;BME280;61893;50.074;14.440;2023-05-21T01:27:53;98546.03;;;13.34;92.94
73016;BME280;61893;50.074;14.440;2023-05-21T01:30:20;98546.69;;;13.28;93.20
73016;BME280;61893;50.074;14.440;2023-05-21T01:35:25;98551.00;;;13.13;94.54
73016;BME280;61893;50.074;14.440;2023-05-21T01:37:58;98552.19;;;13.26;93.71
73016;BME280;61893;50.074;14.440;2023-05-21T01:40:32;98544.16;;;13.18;93.63
73016;BME280;61893;50.074;14.440;2023-05-21T01:43:00;98554.19;;;13.33;93.38
73016;BME280;61893;50.074;14.440;2023-05-21T01:45:27;98556.00;;;13.24;93.79
73016;BME280;61893;50.074;14.440;2023-05-21T01:47:56;98549.34;;;13.12;93.91
73016;BME280;61893;50.074;14.440;2023-05-21T01:50:23;98559.53;;;13.08;94.75
73016;BME280;61893;50.074;14.440;2023-05-21T01:52:53;98552.50;;;13.15;93.76
73016;BME280;61893;50.074;14.440;2023-05-21T01:55:20;98552.19;;;13.26;93.98
73016;BME280;61893;50.074;14.440;2023-05-21T01:57:53;98552.34;;;13.17;94.52
73016;BME280;61893;50.074;14.440;2023-05-21T02:00:24;98541.00;;;13.06;94.61
73016;BME280;61893;50.074;14.440;2023-05-21T02:02:51;98550.69;;;12.99;95.55
73016;BME280;61893;50.074;14.440;2023-05-21T02:05:17;98549.34;;;12.95;95.19
73016;BME280;61893;50.074;14.440;2023-05-21T02:07:43;98551.34;;;13.01;95.39
73016;BME280;61893;50.074;14.440;2023-05-21T02:10:10;98542.00;;;13.05;95.13
73016;BME280;61893;50.074;14.440;2023-05-21T02:12:36;98536.81;;;13.04;95.65
73016;BME280;61893;50.074;14.440;2023-05-21T02:15:03;98537.84;;;13.19;94.93
73016;BME280;61893;50.074;14.440;2023-05-21T02:17:28;98546.66;;;13.20;94.83
73016;BME280;61893;50.074;14.440;2023-05-21T02:19:59;98545.00;;;13.27;94.28
73016;BME280;61893;50.074;14.440;2023-05-21T02:22:43;98543.50;;;13.33;94.13
73016;BME280;61893;50.074;14.440;2023-05-21T02:25:10;98548.00;;;13.32;94.16
73016;BME280;61893;50.074;14.440;2023-05-21T02:27:44;98544.16;;;13.35;94.39
73016;BME280;61893;50.074;14.440;2023-05-21T02:32:58;98539.69;;;13.11;95.71
73016;BME280;61893;50.074;14.440;2023-05-21T02:35:28;98546.19;;;13.08;96.16
73016;BME280;61893;50.074;14.440;2023-05-21T02:37:53;98544.34;;;13.08;96.32
73016;BME280;61893;50.074;14.440;2023-05-21T02:40:23;98544.84;;;12.96;96.77
73016;BME280;61893;50.074;14.440;2023-05-21T02:42:49;98544.50;;;12.99;97.15
73016;BME280;61893;50.074;14.440;2023-05-21T02:45:15;98533.81;;;12.99;96.79
73016;BME280;61893;50.074;14.440;2023-05-21T02:47:40;98535.31;;;13.01;97.23
73016;BME280;61893;50.074;14.440;2023-05-21T02:50:07;98529.63;;;13.13;96.35
73016;BME280;61893;50.074;14.440;2023-05-21T02:52:33;98527.63;;;13.23;95.58
73016;BME280;61893;50.074;14.440;2023-05-21T02:54:59;98531.28;;;13.22;95.77
73016;BME280;61893;50.074;14.440;2023-05-21T02:57:25;98526.81;;;13.14;96.07
73016;BME280;61893;50.074;14.440;2023-05-21T02:59:51;98529.97;;;13.18;95.81
73016;BME280;61893;50.074;14.440;2023-05-21T03:02:16;98541.81;;;12.99;96.86
73016;BME280;61893;50.074;14.440;2023-05-21T03:04:42;98539.97;;;13.07;96.98
73016;BME280;61893;50.074;14.440;2023-05-21T03:07:14;98535.16;;;13.03;96.83
73016;BME280;61893;50.074;14.440;2023-05-21T03:09:40;98535.50;;;13.00;96.99
73016;BME280;61893;50.074;14.440;2023-05-21T03:12:07;98541.19;;;13.05;96.89
73016;BME280;61893;50.074;14.440;2023-05-21T03:14:33;98539.16;;;13.15;96.09
73016;BME280;61893;50.074;14.440;2023-05-21T03:16:59;98536.81;;;13.20;95.55
73016;BME280;61893;50.074;14.440;2023-05-21T03:19:25;98537.97;;;13.18;95.60
73016;BME280;61893;50.074;14.440;2023-05-21T03:21:51;98540.31;;;13.13;96.30
73016;BME280;61893;50.074;14.440;2023-05-21T03:24:18;98528.66;;;13.14;96.36
73016;BME280;61893;50.074;14.440;2023-05-21T03:26:43;98530.31;;;13.23;95.81
73016;BME280;61893;50.074;14.440;2023-05-21T03:29:09;98527.13;;;13.27;95.57
73016;BME280;61893;50.074;14.440;2023-05-21T03:31:35;98533.34;;;13.28;95.21
73016;BME280;61893;50.074;14.440;2023-05-21T03:34:01;98526.28;;;13.43;93.71
73016;BME280;61893;50.074;14.440;2023-05-21T03:36:26;98519.56;;;13.47;93.82
73016;BME280;61893;50.074;14.440;2023-05-21T03:38:52;98524.75;;;13.49;93.77
73016;BME280;61893;50.074;14.440;2023-05-21T03:41:17;98529.78;;;13.44;93.71
73016;BME280;61893;50.074;14.440;2023-05-21T03:43:43;98533.44;;;13.59;93.00
73016;BME280;61893;50.074;14.440;2023-05-21T03:46:09;98534.06;;;13.69;92.47
73016;BME280;61893;50.074;14.440;2023-05-21T03:48:35;98536.63;;;14.02;91.03
73016;BME280;61893;50.074;14.440;2023-05-21T03:51:00;98536.88;;;14.47;88.46
73016;BME280;61893;50.074;14.440;2023-05-21T03:53:26;98528.28;;;14.59;87.78
73016;BME280;61893;50.074;14.440;2023-05-21T03:55:52;98531.91;;;14.67;86.60
73016;BME280;61893;50.074;14.440;2023-05-21T03:58:21;98537.00;;;14.76;86.21
73016;BME280;61893;50.074;14.440;2023-05-21T04:00:46;98542.13;;;15.09;84.25
73016;BME280;61893;50.074;14.440;2023-05-21T04:03:13;98537.09;;;15.59;82.14
73016;BME280;61893;50.074;14.440;2023-05-21T04:05:41;98536.38;;;16.09;79.47
73016;BME280;61893;50.074;14.440;2023-05-21T04:08:07;98540.75;;;16.68;76.74
73016;BME280;61893;50.074;14.440;2023-05-21T04:10:33;98546.28;;;16.81;75.45
73016;BME280;61893;50.074;14.440;2023-05-21T04:12:59;98544.88;;;17.07;74.67
73016;BME280;61893;50.074;14.440;2023-05-21T04:15:25;98541.63;;;17.11;74.12
73016;BME280;61893;50.074;14.440;2023-05-21T04:17:52;98541.94;;;17.86;71.07
73016;BME280;61893;50.074;14.440;2023-05-21T04:20:19;98546.72;;;18.32;68.20
73016;BME280;61893;50.074;14.440;2023-05-21T04:22:45;98539.00;;;18.97;66.33
73016;BME280;61893;50.074;14.440;2023-05-21T04:25:11;98543.78;;;19.28;64.78
73016;BME280;61893;50.074;14.440;2023-05-21T04:27:37;98543.75;;;19.75;63.20
73016;BME280;61893;50.074;14.440;2023-05-21T04:30:03;98539.84;;;20.22;60.85
73016;BME280;61893;50.074;14.440;2023-05-21T04:32:30;98548.38;;;20.26;61.31
73016;BME280;61893;50.074;14.440;2023-05-21T04:34:57;98550.72;;;20.02;60.87
73016;BME280;61893;50.074;14.440;2023-05-21T04:37:28;98551.38;;;20.50;59.31
73016;BME280;61893;50.074;14.440;2023-05-21T04:39:58;98549.81;;;21.05;57.84
73016;BME280;61893;50.074;14.440;2023-05-21T04:42:26;98554.84;;;21.02;57.96
73016;BME280;61893;50.074;14.440;2023-05-21T04:44:51;98563.47;;;21.67;55.38
73016;BME280;61893;50.074;14.440;2023-05-21T04:47:20;98556.50;;;21.96;54.63
73016;BME280;61893;50.074;14.440;2023-05-21T04:49:46;98562.19;;;22.62;52.67
73016;BME280;61893;50.074;14.440;2023-05-21T04:52:14;98554.94;;;23.04;51.15
73016;BME280;61893;50.074;14.440;2023-05-21T04:54:41;98551.97;;;22.45;52.44
73016;BME280;61893;50.074;14.440;2023-05-21T04:57:07;98553.78;;;24.30;48.29
73016;BME280;61893;50.074;14.440;2023-05-21T04:59:33;98546.03;;;23.74;48.77
73016;BME280;61893;50.074;14.440;2023-05-21T05:01:59;98555.69;;;24.86;46.09
73016;BME280;61893;50.074;14.440;2023-05-21T05:04:25;98544.38;;;24.37;46.80
73016;BME280;61893;50.074;14.440;2023-05-21T05:06:51;98539.78;;;24.38;47.20
73016;BME280;61893;50.074;14.440;2023-05-21T05:09:17;98550.41;;;24.39;46.81
73016;BME280;61893;50.074;14.440;2023-05-21T05:11:43;98542.75;;;25.78;43.69
73016;BME280;61893;50.074;14.440;2023-05-21T05:14:09;98551.81;;;26.00;43.35
73016;BME280;61893;50.074;14.440;2023-05-21T05:16:35;98554.63;;;24.87;45.17
73016;BME280;61893;50.074;14.440;2023-05-21T05:19:00;98553.44;;;25.62;43.86
73016;BME280;61893;50.074;14.440;2023-05-21T05:21:32;98556.28;;;25.51;44.14
73016;BME280;61893;50.074;14.440;2023-05-21T05:23:59;98557.13;;;26.51;41.94
73016;BME280;61893;50.074;14.440;2023-05-21T05:26:31;98553.19;;;26.20;42.31
73016;BME280;61893;50.074;14.440;2023-05-21T05:28:59;98549.91;;;25.45;43.47
73016;BME280;61893;50.074;14.440;2023-05-21T05:31:25;98552.22;;;25.53;44.08
73016;BME280;61893;50.074;14.440;2023-05-21T05:33:50;98548.13;;;25.90;42.64
73016;BME280;61893;50.074;14.440;2023-05-21T05:36:16;98557.09;;;25.51;43.57
73016;BME280;61893;50.074;14.440;2023-05-21T05:38:42;98559.63;;;25.75;43.21
73016;BME280;61893;50.074;14.440;2023-05-21T05:41:08;98552.88;;;25.44;44.25
73016;BME280;61893;50.074;14.440;2023-05-21T05:43:39;98542.22;;;26.59;41.78
73016;BME280;61893;50.074;14.440;2023-05-21T05:46:08;98542.00;;;26.65;41.41
73016;BME280;61893;50.074;14.440;2023-05-21T05:48:36;98541.53;;;26.24;41.89
73016;BME280;61893;50.074;14.440;2023-05-21T05:51:02;98538.22;;;28.00;38.93
73016;BME280;61893;50.074;14.440;2023-05-21T05:53:30;98540.25;;;27.40;39.21
73016;BME280;61893;50.074;14.440;2023-05-21T05:56:14;98540.31;;;26.86;40.61
73016;BME280;61893;50.074;14.440;2023-05-21T05:59:13;98535.94;;;27.45;39.82
73016;BME280;61893;50.074;14.440;2023-05-21T06:01:39;98535.09;;;27.44;39.13
73016;BME280;61893;50.074;14.440;2023-05-21T06:04:06;98534.66;;;28.78;36.78
73016;BME280;61893;50.074;14.440;2023-05-21T06:06:35;98528.59;;;28.61;37.21
73016;BME280;61893;50.074;14.440;2023-05-21T06:09:01;98524.88;;;28.14;37.62
73016;BME280;61893;50.074;14.440;2023-05-21T06:11:45;98531.31;;;27.93;38.85
73016;BME280;61893;50.074;14.440;2023-05-21T06:14:38;98539.72;;;28.28;37.43
73016;BME280;61893;50.074;14.440;2023-05-21T06:17:13;98537.47;;;28.20;37.81
73016;BME280;61893;50.074;14.440;2023-05-21T06:19:43;98543.69;;;27.63;38.72
73016;BME280;61893;50.074;14.440;2023-05-21T06:22:12;98539.66;;;27.33;39.91
73016;BME280;61893;50.074;14.440;2023-05-21T06:24:38;98533.78;;;27.89;39.10
73016;BME280;61893;50.074;14.440;2023-05-21T06:27:03;98536.78;;;27.50;38.72
73016;BME280;61893;50.074;14.440;2023-05-21T06:29:33;98536.66;;;27.35;39.50
73016;BME280;61893;50.074;14.440;2023-05-21T06:31:59;98534.16;;;28.08;38.17
73016;BME280;61893;50.074;14.440;2023-05-21T06:34:39;98531.88;;;27.95;38.45
73016;BME280;61893;50.074;14.440;2023-05-21T06:37:08;98537.22;;;29.26;36.13
73016;BME280;61893;50.074;14.440;2023-05-21T06:39:37;98540.78;;;30.47;32.90
73016;BME280;61893;50.074;14.440;2023-05-21T06:42:05;98542.28;;;28.56;37.22
73016;BME280;61893;50.074;14.440;2023-05-21T06:44:31;98529.91;;;31.21;32.85
73016;BME280;61893;50.074;14.440;2023-05-21T06:46:57;98526.31;;;32.32;30.79
73016;BME280;61893;50.074;14.440;2023-05-21T06:49:38;98529.72;;;32.48;29.66
73016;BME280;61893;50.074;14.440;2023-05-21T06:52:13;98523.56;;;30.91;32.14
73016;BME280;61893;50.074;14.440;2023-05-21T06:54:39;98522.75;;;32.74;29.48
73016;BME280;61893;50.074;14.440;2023-05-21T06:57:05;98531.00;;;32.74;29.54
73016;BME280;61893;50.074;14.440;2023-05-21T06:59:31;98538.84;;;33.71;28.04
73016;BME280;61893;50.074;14.440;2023-05-21T07:02:18;98534.22;;;32.63;29.12
73016;BME280;61893;50.074;14.440;2023-05-21T07:04:44;98528.41;;;31.39;31.91
73016;BME280;61893;50.074;14.440;2023-05-21T07:07:10;98533.38;;;31.95;30.90
73016;BME280;61893;50.074;14.440;2023-05-21T07:09:39;98527.63;;;29.23;35.58
73016;BME280;61893;50.074;14.440;2023-05-21T07:12:11;98531.94;;;28.68;36.99
73016;BME280;61893;50.074;14.440;2023-05-21T07:14:47;98535.50;;;28.73;36.09
73016;BME280;61893;50.074;14.440;2023-05-21T07:17:46;98536.53;;;30.81;32.73
73016;BME280;61893;50.074;14.440;2023-05-21T07:20:12;98538.34;;;31.30;31.86
73016;BME280;61893;50.074;14.440;2023-05-21T07:22:42;98535.78;;;31.73;31.20
73016;BME280;61893;50.074;14.440;2023-05-21T07:25:23;98525.53;;;30.81;33.19
73016;BME280;61893;50.074;14.440;2023-05-21T07:27:49;98532.44;;;31.12;31.83
73016;BME280;61893;50.074;14.440;2023-05-21T07:30:15;98534.41;;;31.46;31.97
73016;BME280;61893;50.074;14.440;2023-05-21T07:32:46;98531.03;;;32.31;30.70
73016;BME280;61893;50.074;14.440;2023-05-21T07:35:33;98525.50;;;31.25;31.93
73016;BME280;61893;50.074;14.440;2023-05-21T07:38:19;98526.75;;;31.67;31.09
73016;BME280;61893;50.074;14.440;2023-05-21T07:40:50;98521.63;;;32.33;30.27
73016;BME280;61893;50.074;14.440;2023-05-21T07:43:17;98538.34;;;33.36;29.08
73016;BME280;61893;50.074;14.440;2023-05-21T07:45:54;98536.72;;;33.35;28.70
73016;BME280;61893;50.074;14.440;2023-05-21T07:48:25;98532.00;;;32.41;29.74
73016;BME280;61893;50.074;14.440;2023-05-21T07:51:00;98533.81;;;31.78;31.24
73016;BME280;61893;50.074;14.440;2023-05-21T07:53:26;98534.19;;;32.82;29.56
73016;BME280;61893;50.074;14.440;2023-05-21T07:55:55;98531.34;;;33.25;28.90
73016;BME280;61893;50.074;14.440;2023-05-21T07:58:21;98527.88;;;29.47;34.71
73016;BME280;61893;50.074;14.440;2023-05-21T08:00:47;98527.47;;;30.75;32.80
73016;BME280;61893;50.074;14.440;2023-05-21T08:03:54;98529.25;;;32.41;30.25
73016;BME280;61893;50.074;14.440;2023-05-21T08:06:22;98533.84;;;32.02;31.35
73016;BME280;61893;50.074;14.440;2023-05-21T08:08:51;98532.19;;;31.48;32.05
73016;BME280;61893;50.074;14.440;2023-05-21T08:11:38;98526.50;;;33.03;29.97
73016;BME280;61893;50.074;14.440;2023-05-21T08:14:04;98524.22;;;33.56;28.74
73016;BME280;61893;50.074;14.440;2023-05-21T08:16:30;98530.25;;;33.58;28.21
73016;BME280;61893;50.074;14.440;2023-05-21T08:18:56;98533.34;;;32.19;30.70
73016;BME280;61893;50.074;14.440;2023-05-21T08:21:22;98528.31;;;32.26;30.68
73016;BME280;61893;50.074;14.440;2023-05-21T08:23:51;98527.19;;;31.79;31.91
73016;BME280;61893;50.074;14.440;2023-05-21T08:26:16;98520.00;;;32.07;31.67
73016;BME280;61893;50.074;14.440;2023-05-21T08:28:42;98518.81;;;31.02;33.31
73016;BME280;61893;50.074;14.440;2023-05-21T08:31:17;98517.75;;;30.43;33.97
73016;BME280;61893;50.074;14.440;2023-05-21T08:34:13;98519.38;;;31.92;31.76
73016;BME280;61893;50.074;14.440;2023-05-21T08:37:02;98518.66;;;30.78;33.61
73016;BME280;61893;50.074;14.440;2023-05-21T08:39:39;98519.59;;;31.08;33.38
73016;BME280;61893;50.074;14.440;2023-05-21T08:42:58;98508.78;;;31.51;32.79
73016;BME280;61893;50.074;14.440;2023-05-21T08:45:20;98511.00;;;30.80;33.23
73016;BME280;61893;50.074;14.440;2023-05-21T08:48:21;98513.91;;;31.28;32.66
73016;BME280;61893;50.074;14.440;2023-05-21T08:50:49;98504.44;;;31.10;32.81
73016;BME280;61893;50.074;14.440;2023-05-21T08:53:24;98501.56;;;31.84;31.92
73016;BME280;61893;50.074;14.440;2023-05-21T08:55:53;98510.28;;;32.96;29.99
73016;BME280;61893;50.074;14.440;2023-05-21T08:58:22;98504.59;;;31.82;31.26
73016;BME280;61893;50.074;14.440;2023-05-21T09:00:50;98502.25;;;31.71;31.62
73016;BME280;61893;50.074;14.440;2023-05-21T09:03:15;98509.47;;;31.37;32.53
73016;BME280;61893;50.074;14.440;2023-05-21T09:06:10;98504.56;;;29.60;35.50
73016;BME280;61893;50.074;14.440;2023-05-21T09:08:42;98504.59;;;30.45;34.29
73016;BME280;61893;50.074;14.440;2023-05-21T09:11:22;98499.22;;;31.09;32.62
73016;BME280;61893;50.074;14.440;2023-05-21T09:13:48;98500.91;;;30.00;34.41
73016;BME280;61893;50.074;14.440;2023-05-21T09:16:18;98500.75;;;29.71;35.46
73016;BME280;61893;50.074;14.440;2023-05-21T09:19:07;98496.44;;;30.74;33.23
73016;BME280;61893;50.074;14.440;2023-05-21T09:21:33;98505.66;;;30.49;33.41
73016;BME280;61893;50.074;14.440;2023-05-21T09:24:13;98513.34;;;29.67;35.24
73016;BME280;61893;50.074;14.440;2023-05-21T09:26:48;98497.09;;;29.96;34.44
73016;BME280;61893;50.074;14.440;2023-05-21T09:29:13;98501.00;;;29.64;34.84
73016;BME280;61893;50.074;14.440;2023-05-21T09:31:42;98500.47;;;28.91;35.67
73016;BME280;61893;50.074;14.440;2023-05-21T09:34:09;98490.56;;;28.69;35.54
73016;BME280;61893;50.074;14.440;2023-05-21T09:36:36;98504.59;;;28.93;35.34
73016;BME280;61893;50.074;14.440;2023-05-21T09:39:02;98498.91;;;28.17;36.64
73016;BME280;61893;50.074;14.440;2023-05-21T09:41:33;98489.41;;;28.40;36.97
73016;BME280;61893;50.074;14.440;2023-05-21T09:44:03;98489.22;;;28.62;37.20
73016;BME280;61893;50.074;14.440;2023-05-21T09:46:41;98494.47;;;28.05;38.10
73016;BME280;61893;50.074;14.440;2023-05-21T09:49:23;98498.69;;;27.33;39.70
73016;BME280;61893;50.074;14.440;2023-05-21T09:51:58;98500.09;;;27.09;40.00
73016;BME280;61893;50.074;14.440;2023-05-21T09:54:33;98486.97;;;27.06;39.91
73016;BME280;61893;50.074;14.440;2023-05-21T09:57:02;98478.38;;;27.67;38.47
73016;BME280;61893;50.074;14.440;2023-05-21T09:59:35;98484.28;;;27.85;38.54
73016;BME280;61893;50.074;14.440;2023-05-21T10:02:19;98483.31;;;26.95;40.16
73016;BME280;61893;50.074;14.440;2023-05-21T10:04:50;98475.09;;;26.90;40.15
73016;BME280;61893;50.074;14.440;2023-05-21T10:07:21;98481.25;;;27.07;40.24
73016;BME280;61893;50.074;14.440;2023-05-21T10:09:52;98486.34;;;26.66;40.70
73016;BME280;61893;50.074;14.440;2023-05-21T10:12:22;98483.59;;;26.66;41.20
73016;BME280;61893;50.074;14.440;2023-05-21T10:14:53;98482.91;;;27.08;40.23
73016;BME280;61893;50.074;14.440;2023-05-21T10:17:42;98479.47;;;26.91;41.03
73016;BME280;61893;50.074;14.440;2023-05-21T10:20:11;98475.53;;;26.77;41.10
73016;BME280;61893;50.074;14.440;2023-05-21T10:22:38;98473.38;;;26.29;41.54
73016;BME280;61893;50.074;14.440;2023-05-21T10:25:06;98480.47;;;26.52;40.63
73016;BME280;61893;50.074;14.440;2023-05-21T10:27:34;98468.25;;;26.87;40.01
73016;BME280;61893;50.074;14.440;2023-05-21T10:30:01;98461.31;;;26.74;40.09
73016;BME280;61893;50.074;14.440;2023-05-21T10:32:27;98454.25;;;26.79;39.52
73016;BME280;61893;50.074;14.440;2023-05-21T10:34:53;98456.97;;;26.02;41.45
73016;BME280;61893;50.074;14.440;2023-05-21T10:37:22;98451.66;;;26.62;40.26
73016;BME280;61893;50.074;14.440;2023-05-21T10:39:49;98451.53;;;26.24;41.71
73016;BME280;61893;50.074;14.440;2023-05-21T10:42:23;98462.06;;;26.16;41.86
73016;BME280;61893;50.074;14.440;2023-05-21T10:50:39;98442.38;;;26.14;42.49
73016;BME280;61893;50.074;14.440;2023-05-21T10:53:24;98448.63;;;26.36;41.82
73016;BME280;61893;50.074;14.440;2023-05-21T11:01:12;98455.38;;;26.28;41.34
73016;BME280;61893;50.074;14.440;2023-05-21T11:03:39;98441.78;;;25.84;42.47
73016;BME280;61893;50.074;14.440;2023-05-21T11:06:05;98441.88;;;25.95;42.40
73016;BME280;61893;50.074;14.440;2023-05-21T11:08:31;98444.75;;;26.32;41.80
73016;BME280;61893;50.074;14.440;2023-05-21T11:11:02;98440.84;;;25.96;42.10
73016;BME280;61893;50.074;14.440;2023-05-21T11:13:44;98445.13;;;26.14;41.26
73016;BME280;61893;50.074;14.440;2023-05-21T11:16:14;98449.59;;;25.59;42.71
73016;BME280;61893;50.074;14.440;2023-05-21T11:21:13;98436.72;;;25.93;42.68
73016;BME280;61893;50.074;14.440;2023-05-21T11:26:18;98442.91;;;26.38;41.78
73016;BME280;61893;50.074;14.440;2023-05-21T11:28:44;98443.94;;;26.04;41.84
73016;BME280;61893;50.074;14.440;2023-05-21T11:31:23;98442.66;;;25.90;42.48
73016;BME280;61893;50.074;14.440;2023-05-21T11:34:12;98425.66;;;25.83;42.55
73016;BME280;61893;50.074;14.440;2023-05-21T11:36:40;98436.22;;;26.23;41.94
73016;BME280;61893;50.074;14.440;2023-05-21T11:39:10;98427.34;;;25.84;42.33
73016;BME280;61893;50.074;14.440;2023-05-21T11:44:33;98427.72;;;25.93;42.62
73016;BME280;61893;50.074;14.440;2023-05-21T11:47:02;98429.34;;;26.16;42.26
73016;BME280;61893;50.074;14.440;2023-05-21T11:49:30;98430.09;;;25.89;42.09
73016;BME280;61893;50.074;14.440;2023-05-21T11:51:57;98425.78;;;25.32;43.21
73016;BME280;61893;50.074;14.440;2023-05-21T11:54:26;98414.09;;;25.93;42.25
73016;BME280;61893;50.074;14.440;2023-05-21T11:56:53;98416.47;;;25.89;41.40
73016;BME280;61893;50.074;14.440;2023-05-21T11:59:52;98409.50;;;25.76;42.02
73016;BME280;61893;50.074;14.440;2023-05-21T12:02:19;98419.19;;;26.38;37.08
73016;BME280;61893;50.074;14.440;2023-05-21T12:04:52;98415.81;;;26.53;37.74
73016;BME280;61893;50.074;14.440;2023-05-21T12:07:27;98419.09;;;26.28;40.06
73016;BME280;61893;50.074;14.440;2023-05-21T12:09:57;98423.88;;;26.43;39.62
73016;BME280;61893;50.074;14.440;2023-05-21T12:12:27;98437.06;;;25.80;40.39
73016;BME280;61893;50.074;14.440;2023-05-21T12:14:55;98409.06;;;25.84;40.91
73016;BME280;61893;50.074;14.440;2023-05-21T12:17:23;98422.03;;;26.21;40.36
73016;BME280;61893;50.074;14.440;2023-05-21T12:20:04;98417.47;;;26.05;40.01
73016;BME280;61893;50.074;14.440;2023-05-21T12:22:33;98415.06;;;26.09;39.88
73016;BME280;61893;50.074;14.440;2023-05-21T12:25:02;98397.97;;;26.45;39.15
73016;BME280;61893;50.074;14.440;2023-05-21T12:27:41;98404.63;;;26.55;38.23
73016;BME280;61893;50.074;14.440;2023-05-21T12:30:09;98403.53;;;26.50;38.95
73016;BME280;61893;50.074;14.440;2023-05-21T12:32:39;98400.84;;;26.56;37.98
73016;BME280;61893;50.074;14.440;2023-05-21T12:35:08;98402.72;;;26.55;37.87
73016;BME280;61893;50.074;14.440;2023-05-21T12:37:34;98414.28;;;26.40;38.09
73016;BME280;61893;50.074;14.440;2023-05-21T12:40:06;98409.06;;;26.34;38.15
73016;BME280;61893;50.074;14.440;2023-05-21T12:42:36;98401.34;;;25.98;38.43
73016;BME280;61893;50.074;14.440;2023-05-21T12:45:07;98395.94;;;26.31;38.54
73016;BME280;61893;50.074;14.440;2023-05-21T12:47:34;98399.78;;;26.35;38.30
73016;BME280;61893;50.074;14.440;2023-05-21T12:50:02;98392.69;;;26.61;37.15
73016;BME280;61893;50.074;14.440;2023-05-21T12:52:31;98390.53;;;26.63;36.68
73016;BME280;61893;50.074;14.440;2023-05-21T12:54:57;98402.06;;;26.70;35.74
73016;BME280;61893;50.074;14.440;2023-05-21T12:57:35;98410.88;;;26.50;35.23
73016;BME280;61893;50.074;14.440;2023-05-21T13:00:02;98382.38;;;26.68;34.89
73016;BME280;61893;50.074;14.440;2023-05-21T13:02:33;98386.78;;;26.74;34.48
73016;BME280;61893;50.074;14.440;2023-05-21T13:05:09;98380.09;;;26.92;34.02
73016;BME280;61893;50.074;14.440;2023-05-21T13:07:37;98390.56;;;27.05;33.45
73016;BME280;61893;50.074;14.440;2023-05-21T13:10:06;98376.50;;;27.18;33.14
73016;BME280;61893;50.074;14.440;2023-05-21T13:12:33;98379.41;;;26.74;33.70
73016;BME280;61893;50.074;14.440;2023-05-21T13:15:01;98375.88;;;26.74;32.81
73016;BME280;61893;50.074;14.440;2023-05-21T13:17:27;98370.84;;;26.98;30.78
73016;BME280;61893;50.074;14.440;2023-05-21T13:22:32;98374.09;;;27.27;29.32
73016;BME280;61893;50.074;14.440;2023-05-21T13:24:58;98364.88;;;27.49;29.27
73016;BME280;61893;50.074;14.440;2023-05-21T13:27:23;98358.06;;;27.51;28.92
73016;BME280;61893;50.074;14.440;2023-05-21T13:29:49;98372.28;;;27.58;28.92
73016;BME280;61893;50.074;14.440;2023-05-21T13:32:20;98369.69;;;27.79;29.54